Time;durP1;ratioP1;P1;durP2;ratioP2;P2;SDS_P1;SDS_P2;PMS_P1;PMS_P2;Temp;Humidity;BMP_temperature;BMP_pressure;BME280_temperature;BME280_humidity;BME280_pressure;Samples;Min_cycle;Max_cycle;Signal;HPM_P1;HPM_P2
2023/05/26 00:00:22;;;;;;;;;;;16.70;99.90;;;;;;5080373;28;20011;-74
2023/05/26 00:02:50;;;;;;;;;;;16.70;99.90;;;;;;5059399;28;19924;-74
2023/05/26 00:05:20;;;;;;;;;;;16.60;99.90;;;;;;5066841;28;19931;-75
2023/05/26 00:07:48;;;;;;;;;;;16.60;99.90;;;;;;5077662;28;19982;-75
2023/05/26 00:10:15;;;;;;;;;;;16.60;99.90;;;;;;5058376;28;19960;-74
2023/05/26 00:12:42;;;;;;;;;;;16.60;99.90;;;;;;5066097;28;19924;-74
2023/05/26 00:15:09;;;;;;;;;;;16.60;99.90;;;;;;5064377;28;19924;-74
2023/05/26 00:17:37;;;;;;;;;;;16.50;99.90;;;;;;5064089;28;19943;-74
2023/05/26 00:20:04;;;;;;;;;;;16.50;99.90;;;;;;5061795;28;19936;-74
2023/05/26 00:22:31;;;;;;;;;;;16.50;99.90;;;;;;5066952;28;20386;-74
2023/05/26 00:24:59;;;;;;;;;;;16.50;99.90;;;;;;5062377;28;19974;-74
2023/05/26 00:27:26;;;;;;;;;;;16.50;99.90;;;;;;5064086;28;20009;-74
2023/05/26 00:29:52;;;;;;;;;;;16.50;99.90;;;;;;5062384;28;20042;-74
2023/05/26 00:32:19;;;;;;;;;;;16.40;99.90;;;;;;5066660;28;19929;-74
2023/05/26 00:34:47;;;;;;;;;;;16.40;99.90;;;;;;5061050;28;20314;-74
2023/05/26 00:37:13;;;;;;;;;;;16.40;99.90;;;;;;5058191;28;20036;-74
2023/05/26 00:39:40;;;;;;;;;;;16.30;99.90;;;;;;5064730;28;20382;-74
2023/05/26 00:42:08;;;;;;;;;;;16.30;99.90;;;;;;5058631;28;19924;-74
2023/05/26 00:44:35;;;;;;;;;;;16.30;99.90;;;;;;5073536;28;19935;-74
2023/05/26 00:47:02;;;;;;;;;;;16.30;99.90;;;;;;5059976;28;20018;-74
2023/05/26 00:49:29;;;;;;;;;;;16.30;99.90;;;;;;5065863;28;19981;-74
2023/05/26 00:51:56;;;;;;;;;;;16.20;99.90;;;;;;5059795;28;20019;-74
2023/05/26 00:54:23;;;;;;;;;;;16.20;99.90;;;;;;5064130;28;19925;-74
2023/05/26 00:56:51;;;;;;;;;;;16.20;99.90;;;;;;5057340;28;21138;-74
2023/05/26 00:59:19;;;;;;;;;;;16.20;99.90;;;;;;5077035;28;19928;-74
2023/05/26 01:01:46;;;;;;;;;;;16.20;99.90;;;;;;5091008;28;19932;-74
2023/05/26 01:04:13;;;;;;;;;;;16.20;99.90;;;;;;5078592;28;20396;-74
2023/05/26 01:06:40;;;;;;;;;;;16.20;99.90;;;;;;5064065;28;19932;-74
2023/05/26 01:09:07;;;;;;;;;;;16.20;99.90;;;;;;5062083;28;20419;-73
2023/05/26 01:11:37;;;;;;;;;;;16.10;99.90;;;;;;5061385;28;19932;-74
2023/05/26 01:14:06;;;;;;;;;;;16.10;99.90;;;;;;5061356;28;19925;-73
2023/05/26 01:16:39;;;;;;;;;;;16.10;99.90;;;;;;5068021;28;20653;-73
2023/05/26 01:19:16;;;;;;;;;;;16.00;99.90;;;;;;5060422;28;20015;-73
2023/05/26 01:21:45;;;;;;;;;;;16.00;99.90;;;;;;5063505;28;19928;-74
2023/05/26 01:24:18;;;;;;;;;;;16.00;99.90;;;;;;5096562;28;19931;-74
2023/05/26 01:26:53;;;;;;;;;;;16.00;99.90;;;;;;5078035;28;19937;-75
2023/05/26 01:29:22;;;;;;;;;;;16.00;99.90;;;;;;5063585;28;20353;-74
2023/05/26 01:31:49;;;;;;;;;;;16.00;99.90;;;;;;5062452;28;19924;-74
2023/05/26 01:34:16;;;;;;;;;;;15.90;99.90;;;;;;5061909;28;19928;-74
2023/05/26 01:36:45;;;;;;;;;;;15.90;99.90;;;;;;5058992;28;20374;-74
2023/05/26 01:39:12;;;;;;;;;;;15.90;99.90;;;;;;5066632;28;19924;-74
2023/05/26 01:41:42;;;;;;;;;;;15.90;99.90;;;;;;5059513;28;19931;-74
2023/05/26 01:44:12;;;;;;;;;;;15.90;99.90;;;;;;5080644;28;20438;-75
2023/05/26 01:46:43;;;;;;;;;;;15.80;99.90;;;;;;5090271;28;19924;-74
2023/05/26 01:49:14;;;;;;;;;;;15.80;99.90;;;;;;5059678;28;19959;-74
2023/05/26 01:51:43;;;;;;;;;;;15.80;99.90;;;;;;5064777;28;20354;-74
2023/05/26 01:54:11;;;;;;;;;;;15.80;99.90;;;;;;5058621;28;20658;-74
2023/05/26 01:56:39;;;;;;;;;;;15.80;99.90;;;;;;5065870;28;20444;-74
2023/05/26 01:59:06;;;;;;;;;;;15.80;99.90;;;;;;5080418;28;19964;-74
2023/05/26 02:01:35;;;;;;;;;;;15.80;99.90;;;;;;5060148;28;20402;-75
2023/05/26 02:04:03;;;;;;;;;;;15.70;99.90;;;;;;5075817;28;19932;-74
2023/05/26 02:06:30;;;;;;;;;;;15.70;99.90;;;;;;5065958;28;19928;-74
2023/05/26 02:08:57;;;;;;;;;;;15.70;99.90;;;;;;5066896;28;21972;-74
2023/05/26 02:11:24;;;;;;;;;;;15.70;99.90;;;;;;5065181;28;20353;-74
2023/05/26 02:13:53;;;;;;;;;;;15.70;99.90;;;;;;5066868;28;20282;-75
2023/05/26 02:16:21;;;;;;;;;;;15.70;99.90;;;;;;5067438;28;19971;-74
2023/05/26 02:18:48;;;;;;;;;;;15.60;99.90;;;;;;5062117;28;19928;-74
2023/05/26 02:21:17;;;;;;;;;;;15.60;99.90;;;;;;5093221;28;19928;-74
2023/05/26 02:23:44;;;;;;;;;;;15.60;99.90;;;;;;5067054;28;19947;-74
2023/05/26 02:26:11;;;;;;;;;;;15.60;99.90;;;;;;5065331;28;20019;-74
2023/05/26 02:28:38;;;;;;;;;;;15.50;99.90;;;;;;5062618;28;19928;-74
2023/05/26 02:31:05;;;;;;;;;;;15.50;99.90;;;;;;5068260;28;19946;-74
2023/05/26 02:33:33;;;;;;;;;;;15.50;99.90;;;;;;5099240;28;19925;-74
2023/05/26 02:36:00;;;;;;;;;;;15.50;99.90;;;;;;5062511;28;19929;-74
2023/05/26 02:38:28;;;;;;;;;;;15.50;99.90;;;;;;5065756;28;20006;-74
2023/05/26 02:40:56;;;;;;;;;;;15.50;99.90;;;;;;5065663;28;19932;-74
2023/05/26 02:43:23;;;;;;;;;;;15.40;99.90;;;;;;5068086;28;20345;-74
2023/05/26 02:45:50;;;;;;;;;;;15.40;99.90;;;;;;5079947;28;19924;-74
2023/05/26 02:48:17;;;;;;;;;;;15.40;99.90;;;;;;5078023;28;19932;-74
2023/05/26 02:50:44;;;;;;;;;;;15.40;99.90;;;;;;5070152;28;19925;-74
2023/05/26 02:53:11;;;;;;;;;;;15.40;99.90;;;;;;5070314;28;20317;-74
2023/05/26 02:55:39;;;;;;;;;;;15.40;99.90;;;;;;5085495;28;19978;-74
2023/05/26 02:58:06;;;;;;;;;;;15.30;99.90;;;;;;5062456;28;20042;-72
2023/05/26 03:00:33;;;;;;;;;;;15.30;99.90;;;;;;5067557;28;19925;-74
2023/05/26 03:03:00;;;;;;;;;;;15.30;99.90;;;;;;5065781;28;19931;-74
2023/05/26 03:05:27;;;;;;;;;;;15.30;99.90;;;;;;5065344;28;19925;-74
2023/05/26 03:07:54;;;;;;;;;;;15.20;99.90;;;;;;5062537;28;19924;-74
2023/05/26 03:10:21;;;;;;;;;;;15.20;99.90;;;;;;5062528;28;19936;-73
2023/05/26 03:12:49;;;;;;;;;;;15.20;99.90;;;;;;5063659;28;19932;-74
2023/05/26 03:15:16;;;;;;;;;;;15.20;99.90;;;;;;5056295;28;19936;-74
2023/05/26 03:17:43;;;;;;;;;;;15.20;99.90;;;;;;5064406;28;19990;-74
2023/05/26 03:20:11;;;;;;;;;;;15.20;99.90;;;;;;5065142;28;20423;-74
2023/05/26 03:22:38;;;;;;;;;;;15.10;99.90;;;;;;5065923;28;19932;-74
2023/05/26 03:25:05;;;;;;;;;;;15.10;99.90;;;;;;5062505;28;19939;-74
2023/05/26 03:27:39;;;;;;;;;;;15.10;99.90;;;;;;5064497;28;19924;-74
2023/05/26 03:30:09;;;;;;;;;;;15.10;99.90;;;;;;5091278;27;19947;-74
2023/05/26 03:32:40;;;;;;;;;;;15.00;99.90;;;;;;5049534;28;19940;-74
2023/05/26 03:35:08;;;;;;;;;;;15.00;99.90;;;;;;5100386;28;19938;-74
2023/05/26 03:37:35;;;;;;;;;;;15.00;99.90;;;;;;5066058;28;19924;-73
2023/05/26 03:40:03;;;;;;;;;;;15.00;99.90;;;;;;5066767;28;19931;-74
2023/05/26 03:42:34;;;;;;;;;;;14.90;99.90;;;;;;5059321;28;20029;-74
2023/05/26 03:45:01;;;;;;;;;;;14.90;99.90;;;;;;5070690;28;19924;-74
2023/05/26 03:47:29;;;;;;;;;;;14.90;99.90;;;;;;5078864;28;19975;-74
2023/05/26 03:49:56;;;;;;;;;;;14.80;99.90;;;;;;5058039;28;19939;-74
2023/05/26 03:52:23;;;;;;;;;;;14.80;99.90;;;;;;5063229;28;19928;-74
2023/05/26 03:54:50;;;;;;;;;;;14.80;99.90;;;;;;5098755;28;19928;-73
2023/05/26 03:57:18;;;;;;;;;;;14.80;99.90;;;;;;5080173;28;19933;-74
2023/05/26 03:59:46;;;;;;;;;;;14.70;99.90;;;;;;5058899;28;19982;-74
2023/05/26 04:02:13;;;;;;;;;;;14.70;99.90;;;;;;5061787;28;19924;-74
2023/05/26 04:04:42;;;;;;;;;;;14.70;99.90;;;;;;5081308;28;19924;-74
2023/05/26 04:07:08;;;;;;;;;;;14.70;99.90;;;;;;5064835;28;19983;-74
2023/05/26 04:09:36;;;;;;;;;;;14.70;99.90;;;;;;5097153;28;20207;-74
2023/05/26 04:12:03;;;;;;;;;;;14.70;99.90;;;;;;5081947;28;20391;-74
2023/05/26 04:14:30;;;;;;;;;;;14.60;99.90;;;;;;5060773;28;19928;-77
2023/05/26 04:16:57;;;;;;;;;;;14.60;99.90;;;;;;5061879;28;19928;-76
2023/05/26 04:19:24;;;;;;;;;;;14.60;99.90;;;;;;5060786;28;20354;-75
2023/05/26 04:21:52;;;;;;;;;;;14.60;99.90;;;;;;5066156;28;19932;-76
2023/05/26 04:24:20;;;;;;;;;;;14.60;99.90;;;;;;5057326;28;20043;-75
2023/05/26 04:26:48;;;;;;;;;;;14.60;99.90;;;;;;5076163;28;20004;-77
2023/05/26 04:29:52;;;;;;;;;;;14.60;99.90;;;;;;5056766;28;19993;-76
2023/05/26 04:32:37;;;;;;;;;;;14.50;99.90;;;;;;5055972;28;19959;-76
2023/05/26 04:35:11;;;;;;;;;;;14.50;99.90;;;;;;5075498;28;20387;-75
2023/05/26 04:37:40;;;;;;;;;;;14.50;99.90;;;;;;5054781;28;22697;-78
2023/05/26 04:40:09;;;;;;;;;;;14.50;99.90;;;;;;5061669;28;20161;-76
2023/05/26 04:42:36;;;;;;;;;;;14.50;99.90;;;;;;5062193;28;19939;-75
2023/05/26 04:45:04;;;;;;;;;;;14.50;99.90;;;;;;5063266;28;20901;-75
2023/05/26 04:47:34;;;;;;;;;;;14.50;99.90;;;;;;5095203;28;19931;-76
2023/05/26 04:50:01;;;;;;;;;;;14.50;99.90;;;;;;5063912;28;20391;-75
2023/05/26 04:52:28;;;;;;;;;;;14.50;99.90;;;;;;5055724;28;19936;-76
2023/05/26 04:54:56;;;;;;;;;;;14.40;99.90;;;;;;5072755;28;19944;-75
2023/05/26 04:57:23;;;;;;;;;;;14.40;99.90;;;;;;5088873;27;19939;-75
2023/05/26 04:59:54;;;;;;;;;;;14.40;99.90;;;;;;5061471;28;20302;-76
2023/05/26 05:02:20;;;;;;;;;;;14.40;99.90;;;;;;5057952;28;19925;-75
2023/05/26 05:05:13;;;;;;;;;;;14.50;99.90;;;;;;5037251;28;19925;-75
2023/05/26 05:07:41;;;;;;;;;;;14.50;99.90;;;;;;5066734;28;20011;-75
2023/05/26 05:10:11;;;;;;;;;;;14.50;99.90;;;;;;5075654;28;20356;-76
2023/05/26 05:12:40;;;;;;;;;;;14.60;99.90;;;;;;5063805;28;20417;-75
2023/05/26 05:15:10;;;;;;;;;;;14.60;99.90;;;;;;5059663;28;20019;-75
2023/05/26 05:17:38;;;;;;;;;;;14.70;99.90;;;;;;5056343;28;19935;-75
2023/05/26 05:20:06;;;;;;;;;;;14.70;99.90;;;;;;5066299;28;19928;-75
2023/05/26 05:22:33;;;;;;;;;;;14.70;99.90;;;;;;5077200;28;20006;-76
2023/05/26 05:25:00;;;;;;;;;;;14.70;99.90;;;;;;5077377;28;19928;-76
2023/05/26 05:27:28;;;;;;;;;;;14.70;99.90;;;;;;5096001;28;19929;-76
2023/05/26 05:29:55;;;;;;;;;;;14.70;99.90;;;;;;5079120;28;20429;-76
2023/05/26 05:32:23;;;;;;;;;;;14.60;99.90;;;;;;5056404;28;19930;-75
2023/05/26 05:34:50;;;;;;;;;;;14.70;99.90;;;;;;5066306;28;20043;-75
2023/05/26 05:37:17;;;;;;;;;;;14.60;99.90;;;;;;5056092;28;19933;-75
2023/05/26 05:39:44;;;;;;;;;;;14.60;99.90;;;;;;5078228;28;19961;-75
2023/05/26 05:42:11;;;;;;;;;;;14.60;99.90;;;;;;5065867;28;20423;-75
2023/05/26 05:44:40;;;;;;;;;;;14.60;99.90;;;;;;5061640;28;19925;-76
2023/05/26 05:47:08;;;;;;;;;;;14.60;99.90;;;;;;5097238;28;20309;-76
2023/05/26 05:49:44;;;;;;;;;;;14.50;99.90;;;;;;5081167;28;20301;-75
2023/05/26 05:52:13;;;;;;;;;;;14.50;99.90;;;;;;5082572;28;20006;-75
2023/05/26 05:54:40;;;;;;;;;;;14.50;99.90;;;;;;5062817;28;19971;-76
2023/05/26 05:57:07;;;;;;;;;;;14.50;99.90;;;;;;5062235;28;19928;-75
2023/05/26 05:59:34;;;;;;;;;;;14.60;99.90;;;;;;5094438;28;20410;-76
2023/05/26 06:02:03;;;;;;;;;;;14.60;99.90;;;;;;5080791;28;20448;-75
2023/05/26 06:04:30;;;;;;;;;;;14.50;99.90;;;;;;5077934;28;19933;-75
2023/05/26 06:06:58;;;;;;;;;;;14.60;99.90;;;;;;5089991;28;19932;-75
2023/05/26 06:09:26;;;;;;;;;;;14.60;99.90;;;;;;5056224;28;19928;-77
2023/05/26 06:11:52;;;;;;;;;;;14.60;99.90;;;;;;5064978;28;19932;-75
2023/05/26 06:14:20;;;;;;;;;;;14.60;99.90;;;;;;5069407;28;19924;-75
2023/05/26 06:16:47;;;;;;;;;;;14.60;99.90;;;;;;5080284;28;19978;-77
2023/05/26 06:19:15;;;;;;;;;;;14.60;99.90;;;;;;5061501;28;20182;-76
2023/05/26 06:21:42;;;;;;;;;;;14.60;99.90;;;;;;5077447;28;20365;-75
2023/05/26 06:24:09;;;;;;;;;;;14.60;99.90;;;;;;5055819;28;19972;-75
2023/05/26 07:41:28;;;;;;;;;;;16.00;99.90;;;;;;5069690;27;20177;-81
2023/05/26 07:43:55;;;;;;;;;;;16.00;99.90;;;;;;5076888;28;19960;-77
2023/05/26 07:48:49;;;;;;;;;;;16.10;99.90;;;;;;5064131;28;19932;-78
2023/05/26 07:51:15;;;;;;;;;;;16.00;99.90;;;;;;5070189;28;20042;-78
2023/05/26 07:53:42;;;;;;;;;;;15.90;99.90;;;;;;5079571;28;20973;-78
2023/05/26 07:56:09;;;;;;;;;;;15.90;99.90;;;;;;5059028;28;20024;-79
2023/05/26 07:58:38;;;;;;;;;;;15.80;99.90;;;;;;5060030;28;19933;-78
2023/05/26 08:01:06;;;;;;;;;;;15.80;99.90;;;;;;5060867;28;20015;-78
2023/05/26 08:03:33;;;;;;;;;;;15.80;99.90;;;;;;5064401;28;19924;-78
2023/05/26 08:06:00;;;;;;;;;;;15.80;99.90;;;;;;5052484;28;19975;-79
2023/05/26 08:08:27;;;;;;;;;;;15.80;99.90;;;;;;5060414;28;19964;-79
2023/05/26 08:10:54;;;;;;;;;;;15.80;99.90;;;;;;5053523;28;20056;-79
2023/05/26 08:13:20;;;;;;;;;;;15.80;99.90;;;;;;5055066;28;19986;-79
2023/05/26 08:15:49;;;;;;;;;;;15.70;99.90;;;;;;5038650;28;19932;-79
2023/05/26 08:18:16;;;;;;;;;;;15.80;99.90;;;;;;5062099;28;19975;-78
2023/05/26 08:20:43;;;;;;;;;;;15.80;99.90;;;;;;5063405;28;19933;-79
2023/05/26 08:23:10;;;;;;;;;;;15.70;99.90;;;;;;5058426;28;19978;-80
2023/05/26 08:25:37;;;;;;;;;;;15.80;99.90;;;;;;5057458;28;19986;-79
2023/05/26 08:28:04;;;;;;;;;;;15.80;99.90;;;;;;5059370;28;19933;-79
2023/05/26 08:30:31;;;;;;;;;;;15.80;99.90;;;;;;5056000;28;19963;-79
2023/05/26 08:32:59;;;;;;;;;;;15.80;99.90;;;;;;5045653;28;19929;-80
2023/05/26 08:35:27;;;;;;;;;;;15.70;99.90;;;;;;5035266;28;19929;-80
2023/05/26 08:37:54;;;;;;;;;;;15.80;99.90;;;;;;5057516;28;19924;-80
2023/05/26 08:40:21;;;;;;;;;;;15.80;99.90;;;;;;5053116;28;19925;-78
2023/05/26 08:42:50;;;;;;;;;;;15.80;99.90;;;;;;5039174;28;20020;-79
2023/05/26 08:45:18;;;;;;;;;;;15.80;99.90;;;;;;5048441;28;19925;-79
2023/05/26 08:47:45;;;;;;;;;;;15.80;99.90;;;;;;5032542;28;19989;-79
2023/05/26 08:50:14;;;;;;;;;;;15.80;99.90;;;;;;5035574;28;20018;-79
2023/05/26 08:52:42;;;;;;;;;;;15.80;99.90;;;;;;5016780;28;19929;-79
2023/05/26 08:55:09;;;;;;;;;;;15.80;99.90;;;;;;5024852;28;19936;-79
2023/05/26 08:57:38;;;;;;;;;;;15.80;99.90;;;;;;5006040;28;19933;-79
2023/05/26 09:00:07;;;;;;;;;;;15.80;99.90;;;;;;5026406;28;19948;-79
2023/05/26 09:02:34;;;;;;;;;;;15.80;99.90;;;;;;5012269;28;20022;-80
2023/05/26 09:05:01;;;;;;;;;;;15.80;99.90;;;;;;5022176;28;20015;-79
2023/05/26 09:07:29;;;;;;;;;;;15.80;99.90;;;;;;5018018;28;19929;-79
2023/05/26 09:10:02;;;;;;;;;;;15.90;99.90;;;;;;5018486;28;19949;-79
2023/05/26 09:12:35;;;;;;;;;;;15.90;99.90;;;;;;5009087;28;19956;-79
2023/05/26 09:15:02;;;;;;;;;;;15.90;99.90;;;;;;5006941;28;19991;-79
2023/05/26 09:17:33;;;;;;;;;;;15.80;99.90;;;;;;5020496;28;19937;-79
2023/05/26 09:20:00;;;;;;;;;;;15.80;99.90;;;;;;5003881;28;19979;-79
2023/05/26 09:22:34;;;;;;;;;;;15.90;99.90;;;;;;5017362;28;19929;-79
2023/05/26 09:25:01;;;;;;;;;;;15.90;99.90;;;;;;5019156;28;19940;-79
2023/05/26 09:27:27;;;;;;;;;;;15.90;99.90;;;;;;5023180;28;20273;-79
2023/05/26 09:29:55;;;;;;;;;;;15.90;99.90;;;;;;5014502;28;20144;-79
2023/05/26 09:32:25;;;;;;;;;;;15.90;99.90;;;;;;5019663;28;20012;-79
2023/05/26 09:34:52;;;;;;;;;;;15.90;99.90;;;;;;5003932;28;19933;-79
2023/05/26 09:37:19;;;;;;;;;;;15.90;99.90;;;;;;5022850;28;19933;-79
2023/05/26 09:39:47;;;;;;;;;;;16.00;99.90;;;;;;5023115;28;19936;-79
2023/05/26 09:42:15;;;;;;;;;;;15.90;99.90;;;;;;5014358;28;19933;-79
2023/05/26 09:44:47;;;;;;;;;;;16.00;99.90;;;;;;5018193;28;20140;-80
2023/05/26 09:47:19;;;;;;;;;;;15.90;99.90;;;;;;5009046;28;19932;-79
2023/05/26 09:49:46;;;;;;;;;;;16.00;99.90;;;;;;5023951;28;20035;-79
2023/05/26 09:52:16;;;;;;;;;;;16.00;99.90;;;;;;5040995;28;19932;-79
2023/05/26 09:54:43;;;;;;;;;;;16.00;99.90;;;;;;5022383;28;20461;-79
2023/05/26 09:57:14;;;;;;;;;;;16.00;99.90;;;;;;5030764;28;19925;-80
2023/05/26 09:59:42;;;;;;;;;;;16.00;99.90;;;;;;5043251;28;20342;-80
2023/05/26 10:02:17;;;;;;;;;;;16.00;99.90;;;;;;5046253;28;19939;-80
2023/05/26 10:04:55;;;;;;;;;;;16.00;99.90;;;;;;5027376;28;19933;-80
2023/05/26 10:07:34;;;;;;;;;;;16.10;99.90;;;;;;5045221;28;19924;-80
2023/05/26 10:10:02;;;;;;;;;;;16.10;99.90;;;;;;5024720;28;19925;-80
2023/05/26 10:12:34;;;;;;;;;;;16.10;99.90;;;;;;5053236;28;20361;-80
2023/05/26 10:15:02;;;;;;;;;;;16.10;99.90;;;;;;5044839;28;19925;-80
2023/05/26 10:17:30;;;;;;;;;;;16.10;99.90;;;;;;5039139;28;19924;-80
2023/05/26 10:19:58;;;;;;;;;;;16.10;99.90;;;;;;5058000;28;19928;-79
2023/05/26 10:22:27;;;;;;;;;;;16.10;99.90;;;;;;5057105;28;20459;-79
2023/05/26 10:24:56;;;;;;;;;;;16.10;99.90;;;;;;5061584;28;20416;-79
2023/05/26 10:27:29;;;;;;;;;;;16.10;99.90;;;;;;5051075;28;19993;-80
2023/05/26 10:30:01;;;;;;;;;;;16.10;99.90;;;;;;5060272;28;19925;-78
2023/05/26 10:32:46;;;;;;;;;;;16.20;99.90;;;;;;5061792;28;20015;-80
2023/05/26 10:35:27;;;;;;;;;;;16.20;99.90;;;;;;5066694;28;20023;-81
2023/05/26 10:38:00;;;;;;;;;;;16.20;99.90;;;;;;5060340;28;20237;-80
2023/05/26 10:40:28;;;;;;;;;;;16.20;99.90;;;;;;5064363;28;20021;-79
2023/05/26 10:42:57;;;;;;;;;;;16.20;99.90;;;;;;5060412;28;22789;-79
2023/05/26 10:45:26;;;;;;;;;;;16.20;99.90;;;;;;5061331;28;19940;-79
2023/05/26 10:47:57;;;;;;;;;;;16.30;99.90;;;;;;5058665;28;20481;-80
2023/05/26 10:50:24;;;;;;;;;;;16.30;99.90;;;;;;5061924;28;19932;-80
2023/05/26 10:52:52;;;;;;;;;;;16.30;99.90;;;;;;5068028;28;20019;-81
2023/05/26 10:55:29;;;;;;;;;;;16.30;99.90;;;;;;5056324;28;20383;-80
2023/05/26 10:58:15;;;;;;;;;;;16.30;99.90;;;;;;5068480;28;19924;-80
2023/05/26 11:00:44;;;;;;;;;;;16.30;99.90;;;;;;5062609;28;20310;-79
2023/05/26 11:03:36;;;;;;;;;;;16.30;99.90;;;;;;5063720;28;20409;-80
2023/05/26 11:06:03;;;;;;;;;;;16.30;99.90;;;;;;5043490;28;19947;-80
2023/05/26 11:08:35;;;;;;;;;;;16.40;99.90;;;;;;5042063;28;19939;-80
2023/05/26 11:11:03;;;;;;;;;;;16.40;99.90;;;;;;5068464;28;19931;-79
2023/05/26 11:13:45;;;;;;;;;;;16.40;99.90;;;;;;5068973;28;19925;-80
2023/05/26 11:16:17;;;;;;;;;;;16.40;99.90;;;;;;5068936;28;19933;-80
2023/05/26 11:18:48;;;;;;;;;;;16.40;99.90;;;;;;5057664;28;19984;-79
2023/05/26 11:21:15;;;;;;;;;;;16.50;99.90;;;;;;5064623;28;19925;-78
2023/05/26 11:23:42;;;;;;;;;;;17.20;99.90;;;;;;5059627;28;20405;-80
2023/05/26 11:26:13;;;;;;;;;;;17.50;99.90;;;;;;5059734;28;19928;-79
2023/05/26 11:28:41;;;;;;;;;;;17.30;99.90;;;;;;5058892;28;20015;-79
2023/05/26 11:31:11;;;;;;;;;;;17.10;99.90;;;;;;5056684;28;20416;-79
2023/05/26 11:33:40;;;;;;;;;;;17.00;99.90;;;;;;5052482;28;20404;-79
2023/05/26 11:36:11;;;;;;;;;;;17.00;99.90;;;;;;5062188;28;19931;-78
2023/05/26 11:38:38;;;;;;;;;;;17.30;99.90;;;;;;5068027;28;19924;-78
2023/05/26 11:41:06;;;;;;;;;;;17.30;99.90;;;;;;5047751;28;20345;-79
2023/05/26 11:43:33;;;;;;;;;;;17.20;99.90;;;;;;5068887;28;19978;-78
2023/05/26 11:46:01;;;;;;;;;;;17.20;99.90;;;;;;5058588;28;19928;-78
2023/05/26 11:48:31;;;;;;;;;;;17.20;99.90;;;;;;5067510;28;19932;-77
2023/05/26 11:50:59;;;;;;;;;;;17.20;99.90;;;;;;5066218;28;19957;-78
2023/05/26 11:53:29;;;;;;;;;;;17.30;99.90;;;;;;5060630;28;20662;-77
2023/05/26 11:56:01;;;;;;;;;;;17.20;99.90;;;;;;5060751;28;19928;-77
2023/05/26 11:58:28;;;;;;;;;;;17.20;99.90;;;;;;5063810;28;21016;-78
2023/05/26 12:00:57;;;;;;;;;;;17.20;99.90;;;;;;5069986;28;20263;-77
2023/05/26 12:03:24;;;;;;;;;;;17.20;99.90;;;;;;5056483;28;19932;-78
2023/05/26 12:05:51;;;;;;;;;;;17.30;99.90;;;;;;5046392;28;20014;-77
2023/05/26 12:08:22;;;;;;;;;;;17.30;99.90;;;;;;5057514;28;20093;-78
2023/05/26 12:10:49;;;;;;;;;;;17.30;99.90;;;;;;5062438;28;19924;-77
2023/05/26 12:15:57;;;;;;;;;;;17.30;99.90;;;;;;5017356;28;19972;-78
2023/05/26 12:18:24;;;;;;;;;;;17.30;99.90;;;;;;5025948;28;19952;-79
2023/05/26 12:20:51;;;;;;;;;;;17.30;99.90;;;;;;5020848;28;19959;-79
2023/05/26 12:23:28;;;;;;;;;;;17.40;99.90;;;;;;5049703;28;20444;-79
2023/05/26 12:25:55;;;;;;;;;;;17.50;99.90;;;;;;5046594;28;20011;-81
2023/05/26 12:28:22;;;;;;;;;;;17.60;99.90;;;;;;5035775;28;20306;-79
2023/05/26 12:30:49;;;;;;;;;;;17.60;99.90;;;;;;5051366;28;19944;-79
2023/05/26 12:33:16;;;;;;;;;;;17.60;99.90;;;;;;5048835;28;19929;-80
2023/05/26 12:35:44;;;;;;;;;;;17.50;99.90;;;;;;5054008;28;19925;-80
2023/05/26 12:38:13;;;;;;;;;;;17.60;99.90;;;;;;5047565;28;19929;-79
2023/05/26 12:40:42;;;;;;;;;;;17.60;99.90;;;;;;5053648;28;20573;-80
2023/05/26 12:43:09;;;;;;;;;;;17.60;99.90;;;;;;5030347;28;20015;-80
2023/05/26 12:45:36;;;;;;;;;;;17.60;99.90;;;;;;5046337;28;20350;-80
2023/05/26 12:48:03;;;;;;;;;;;17.60;99.90;;;;;;5033156;28;19924;-81
2023/05/26 12:50:30;;;;;;;;;;;17.60;99.90;;;;;;5033056;28;19935;-80
2023/05/26 12:52:57;;;;;;;;;;;17.70;99.90;;;;;;5044105;28;20510;-80
2023/05/26 12:55:27;;;;;;;;;;;17.70;99.90;;;;;;5040290;28;19987;-79
2023/05/26 12:57:55;;;;;;;;;;;17.70;99.90;;;;;;5057277;28;19935;-79
2023/05/26 13:00:22;;;;;;;;;;;17.80;99.90;;;;;;5045641;28;20426;-78
2023/05/26 13:02:49;;;;;;;;;;;17.80;99.90;;;;;;5041626;28;19932;-79
2023/05/26 13:05:16;;;;;;;;;;;17.80;99.90;;;;;;5045574;28;19935;-79
2023/05/26 13:07:43;;;;;;;;;;;17.80;99.90;;;;;;5059746;28;20417;-79
2023/05/26 13:10:11;;;;;;;;;;;17.80;99.90;;;;;;5046314;28;20011;-79
2023/05/26 13:12:41;;;;;;;;;;;17.80;99.90;;;;;;5044143;28;19964;-78
2023/05/26 13:15:09;;;;;;;;;;;17.90;99.90;;;;;;5010415;28;20011;-79
2023/05/26 13:17:36;;;;;;;;;;;17.90;99.90;;;;;;5023901;28;20355;-78
2023/05/26 13:20:04;;;;;;;;;;;18.00;99.90;;;;;;5022746;28;19925;-78
2023/05/26 13:22:31;;;;;;;;;;;18.20;99.90;;;;;;5024907;28;20020;-79
2023/05/26 13:24:57;;;;;;;;;;;18.30;99.90;;;;;;5018235;28;19925;-78
2023/05/26 13:27:26;;;;;;;;;;;18.40;99.90;;;;;;5025596;28;19943;-78
2023/05/26 13:29:54;;;;;;;;;;;18.60;99.90;;;;;;5019895;28;19935;-79
2023/05/26 13:32:23;;;;;;;;;;;18.70;99.90;;;;;;5030268;28;19939;-80
2023/05/26 13:34:50;;;;;;;;;;;18.80;99.90;;;;;;5031637;28;20346;-80
2023/05/26 13:37:17;;;;;;;;;;;18.90;99.90;;;;;;5025197;28;19931;-81
2023/05/26 13:39:44;;;;;;;;;;;18.90;99.90;;;;;;5002028;28;19933;-81
2023/05/26 13:42:11;;;;;;;;;;;18.90;99.90;;;;;;5026003;28;19925;-78
2023/05/26 13:44:38;;;;;;;;;;;19.10;99.90;;;;;;5012637;28;20000;-80
2023/05/26 13:47:05;;;;;;;;;;;19.40;99.90;;;;;;5009609;28;20125;-80
2023/05/26 13:49:33;;;;;;;;;;;19.40;99.90;;;;;;5027547;28;19925;-80
2023/05/26 13:52:04;;;;;;;;;;;19.50;99.90;;;;;;5033668;28;20693;-80
2023/05/26 13:54:30;;;;;;;;;;;19.60;99.90;;;;;;5035080;28;20410;-81
2023/05/26 13:56:57;;;;;;;;;;;19.70;99.90;;;;;;5012467;28;19992;-79
2023/05/26 13:59:24;;;;;;;;;;;19.50;99.90;;;;;;5035445;28;19924;-80
2023/05/26 14:01:51;;;;;;;;;;;19.60;99.90;;;;;;5016797;28;19925;-80
2023/05/26 14:04:18;;;;;;;;;;;19.90;99.90;;;;;;5025532;28;20028;-80
2023/05/26 14:06:46;;;;;;;;;;;20.20;99.90;;;;;;5030113;28;20019;-80
2023/05/26 14:09:13;;;;;;;;;;;20.40;99.90;;;;;;5013551;28;19972;-79
2023/05/26 14:11:46;;;;;;;;;;;20.30;99.90;;;;;;5024685;28;19940;-79
2023/05/26 14:14:13;;;;;;;;;;;20.50;99.90;;;;;;5031075;28;19933;-79
2023/05/26 14:16:40;;;;;;;;;;;20.60;99.90;;;;;;5037283;28;19928;-79
2023/05/26 14:19:07;;;;;;;;;;;20.50;99.90;;;;;;5042165;28;19924;-79
2023/05/26 14:21:34;;;;;;;;;;;20.50;99.90;;;;;;5036748;28;19935;-80
2023/05/26 14:24:02;;;;;;;;;;;20.50;99.90;;;;;;5051263;28;20453;-79
2023/05/26 14:26:29;;;;;;;;;;;20.40;99.90;;;;;;5047391;28;20398;-79
2023/05/26 14:28:56;;;;;;;;;;;20.50;99.90;;;;;;5049455;28;19925;-79
2023/05/26 14:31:23;;;;;;;;;;;20.50;99.90;;;;;;5046824;28;19929;-79
2023/05/26 14:33:50;;;;;;;;;;;20.60;99.90;;;;;;5051681;28;19982;-81
2023/05/26 14:36:21;;;;;;;;;;;20.70;99.90;;;;;;5043688;28;19928;-79
2023/05/26 14:38:49;;;;;;;;;;;20.70;99.90;;;;;;5045378;28;19939;-79
2023/05/26 14:41:18;;;;;;;;;;;20.80;99.90;;;;;;5046074;28;19933;-80
2023/05/26 14:43:48;;;;;;;;;;;21.20;99.90;;;;;;5044899;28;20319;-78
2023/05/26 14:46:18;;;;;;;;;;;21.10;99.90;;;;;;5044979;28;20291;-78
2023/05/26 14:48:52;;;;;;;;;;;21.00;99.80;;;;;;5026463;28;19928;-80
2023/05/26 14:51:19;;;;;;;;;;;21.10;99.90;;;;;;5042790;28;19935;-80
2023/05/26 14:53:45;;;;;;;;;;;21.10;99.90;;;;;;5037837;28;19925;-80
2023/05/26 14:56:12;;;;;;;;;;;21.00;99.90;;;;;;5042507;28;20410;-79
2023/05/26 14:58:41;;;;;;;;;;;20.90;98.70;;;;;;5037704;28;19933;-78
2023/05/26 15:01:08;;;;;;;;;;;20.80;98.70;;;;;;5015817;28;20032;-76
2023/05/26 15:03:35;;;;;;;;;;;20.70;98.10;;;;;;5036337;28;19929;-76
2023/05/26 15:06:04;;;;;;;;;;;20.70;98.10;;;;;;5037077;28;19940;-76
2023/05/26 15:08:31;;;;;;;;;;;20.70;97.50;;;;;;5027253;28;20457;-77
2023/05/26 15:10:58;;;;;;;;;;;20.60;98.00;;;;;;5035185;28;19928;-77
2023/05/26 15:13:25;;;;;;;;;;;20.60;97.90;;;;;;5035430;28;19929;-76
2023/05/26 15:15:53;;;;;;;;;;;20.50;97.60;;;;;;5039500;28;19988;-76
2023/05/26 15:18:28;;;;;;;;;;;20.60;98.10;;;;;;5043483;28;20306;-79
2023/05/26 15:20:59;;;;;;;;;;;20.70;97.60;;;;;;5054715;28;19935;-79
2023/05/26 15:23:26;;;;;;;;;;;20.70;97.90;;;;;;5045674;28;19925;-78
2023/05/26 15:25:54;;;;;;;;;;;20.70;97.00;;;;;;5033131;28;20366;-77
2023/05/26 15:28:24;;;;;;;;;;;20.60;97.10;;;;;;5045027;28;20020;-77
2023/05/26 15:30:53;;;;;;;;;;;20.60;97.20;;;;;;5040495;28;19936;-78
2023/05/26 15:33:20;;;;;;;;;;;20.70;97.40;;;;;;5034949;28;19925;-77
2023/05/26 15:35:47;;;;;;;;;;;20.70;96.00;;;;;;5039222;28;20395;-78
2023/05/26 15:38:14;;;;;;;;;;;20.70;96.50;;;;;;5037373;28;19933;-77
2023/05/26 15:40:41;;;;;;;;;;;20.70;96.30;;;;;;5041450;28;19932;-77
2023/05/26 15:43:20;;;;;;;;;;;20.70;96.90;;;;;;5027243;28;19960;-79